sensor_id;sensor_type;location;lat;lon;timestamp;P1;durP1;ratioP1;P2;durP2;ratioP2
9783;SDS011;4931;44.874;-1.092;2023-07-08T00:02:11;2.17;;;1.30;;
9783;SDS011;4931;44.874;-1.092;2023-07-08T00:04:38;3.60;;;1.55;;
9783;SDS011;4931;44.874;-1.092;2023-07-08T00:07:05;2.10;;;1.50;;
9783;SDS011;4931;44.874;-1.092;2023-07-08T00:09:35;2.22;;;1.33;;
9783;SDS011;4931;44.874;-1.092;2023-07-08T00:12:01;2.92;;;1.60;;
9783;SDS011;4931;44.874;-1.092;2023-07-08T00:14:26;2.40;;;1.35;;
9783;SDS011;4931;44.874;-1.092;2023-07-08T00:16:52;2.50;;;1.38;;
9783;SDS011;4931;44.874;-1.092;2023-07-08T00:19:17;3.60;;;1.60;;
9783;SDS011;4931;44.874;-1.092;2023-07-08T00:21:49;2.05;;;1.40;;
9783;SDS011;4931;44.874;-1.092;2023-07-08T00:24:16;2.47;;;1.45;;
9783;SDS011;4931;44.874;-1.092;2023-07-08T00:26:42;2.60;;;1.38;;
9783;SDS011;4931;44.874;-1.092;2023-07-08T00:29:10;5.53;;;1.58;;
9783;SDS011;4931;44.874;-1.092;2023-07-08T00:31:38;4.25;;;1.50;;
9783;SDS011;4931;44.874;-1.092;2023-07-08T00:34:03;3.63;;;1.30;;
9783;SDS011;4931;44.874;-1.092;2023-07-08T00:36:29;2.25;;;1.33;;
9783;SDS011;4931;44.874;-1.092;2023-07-08T00:38:58;2.72;;;1.50;;
9783;SDS011;4931;44.874;-1.092;2023-07-08T00:43:56;3.30;;;1.60;;
9783;SDS011;4931;44.874;-1.092;2023-07-08T00:51:33;2.83;;;1.40;;
9783;SDS011;4931;44.874;-1.092;2023-07-08T00:54:03;3.60;;;1.40;;
9783;SDS011;4931;44.874;-1.092;2023-07-08T00:58:56;3.38;;;1.50;;
9783;SDS011;4931;44.874;-1.092;2023-07-08T01:01:32;3.75;;;1.63;;
9783;SDS011;4931;44.874;-1.092;2023-07-08T01:04:03;2.78;;;1.67;;
9783;SDS011;4931;44.874;-1.092;2023-07-08T01:06:32;2.42;;;1.60;;
9783;SDS011;4931;44.874;-1.092;2023-07-08T01:09:05;1.98;;;1.50;;
9783;SDS011;4931;44.874;-1.092;2023-07-08T01:11:33;3.63;;;2.00;;
9783;SDS011;4931;44.874;-1.092;2023-07-08T01:14:01;5.90;;;1.80;;
9783;SDS011;4931;44.874;-1.092;2023-07-08T01:16:29;2.70;;;1.50;;
9783;SDS011;4931;44.874;-1.092;2023-07-08T01:18:59;5.93;;;1.73;;
9783;SDS011;4931;44.874;-1.092;2023-07-08T01:21:35;2.72;;;1.80;;
9783;SDS011;4931;44.874;-1.092;2023-07-08T01:24:04;4.57;;;1.70;;
9783;SDS011;4931;44.874;-1.092;2023-07-08T01:26:33;3.10;;;1.80;;
9783;SDS011;4931;44.874;-1.092;2023-07-08T01:29:00;4.35;;;1.77;;
9783;SDS011;4931;44.874;-1.092;2023-07-08T01:31:28;3.20;;;1.95;;
9783;SDS011;4931;44.874;-1.092;2023-07-08T01:33:54;4.68;;;1.77;;
9783;SDS011;4931;44.874;-1.092;2023-07-08T01:36:20;2.70;;;1.80;;
9783;SDS011;4931;44.874;-1.092;2023-07-08T01:38:46;2.38;;;1.58;;
9783;SDS011;4931;44.874;-1.092;2023-07-08T01:41:13;4.28;;;1.80;;
9783;SDS011;4931;44.874;-1.092;2023-07-08T01:43:41;4.05;;;1.90;;
9783;SDS011;4931;44.874;-1.092;2023-07-08T01:46:11;3.63;;;1.65;;
9783;SDS011;4931;44.874;-1.092;2023-07-08T01:48:50;4.15;;;1.58;;
9783;SDS011;4931;44.874;-1.092;2023-07-08T01:51:18;3.70;;;2.10;;
9783;SDS011;4931;44.874;-1.092;2023-07-08T01:53:44;4.30;;;1.73;;
9783;SDS011;4931;44.874;-1.092;2023-07-08T01:56:11;5.47;;;2.00;;
9783;SDS011;4931;44.874;-1.092;2023-07-08T01:58:38;6.35;;;2.05;;
9783;SDS011;4931;44.874;-1.092;2023-07-08T02:01:04;3.28;;;1.95;;
9783;SDS011;4931;44.874;-1.092;2023-07-08T02:03:29;6.03;;;1.88;;
9783;SDS011;4931;44.874;-1.092;2023-07-08T02:05:55;3.72;;;1.77;;
9783;SDS011;4931;44.874;-1.092;2023-07-08T02:08:21;4.47;;;2.00;;
9783;SDS011;4931;44.874;-1.092;2023-07-08T02:10:51;5.93;;;2.15;;
9783;SDS011;4931;44.874;-1.092;2023-07-08T02:13:18;3.85;;;2.10;;
9783;SDS011;4931;44.874;-1.092;2023-07-08T02:15:45;3.65;;;2.03;;
9783;SDS011;4931;44.874;-1.092;2023-07-08T02:18:11;8.25;;;2.20;;
9783;SDS011;4931;44.874;-1.092;2023-07-08T02:20:36;6.03;;;2.00;;
9783;SDS011;4931;44.874;-1.092;2023-07-08T02:23:02;4.03;;;2.00;;
9783;SDS011;4931;44.874;-1.092;2023-07-08T02:25:27;4.82;;;1.90;;
9783;SDS011;4931;44.874;-1.092;2023-07-08T02:27:53;3.35;;;2.13;;
9783;SDS011;4931;44.874;-1.092;2023-07-08T02:30:25;4.55;;;2.15;;
9783;SDS011;4931;44.874;-1.092;2023-07-08T02:32:51;5.30;;;2.20;;
9783;SDS011;4931;44.874;-1.092;2023-07-08T02:35:23;3.85;;;1.85;;
9783;SDS011;4931;44.874;-1.092;2023-07-08T02:37:55;4.93;;;2.22;;
9783;SDS011;4931;44.874;-1.092;2023-07-08T02:40:22;7.22;;;2.20;;
9783;SDS011;4931;44.874;-1.092;2023-07-08T02:42:48;4.70;;;2.20;;
9783;SDS011;4931;44.874;-1.092;2023-07-08T02:45:16;4.22;;;1.90;;
9783;SDS011;4931;44.874;-1.092;2023-07-08T02:47:42;4.10;;;1.90;;
9783;SDS011;4931;44.874;-1.092;2023-07-08T02:50:09;3.72;;;2.00;;
9783;SDS011;4931;44.874;-1.092;2023-07-08T02:52:35;5.95;;;2.20;;
9783;SDS011;4931;44.874;-1.092;2023-07-08T02:55:01;3.85;;;2.10;;
9783;SDS011;4931;44.874;-1.092;2023-07-08T02:57:27;6.15;;;2.17;;
9783;SDS011;4931;44.874;-1.092;2023-07-08T02:59:52;5.63;;;2.10;;
9783;SDS011;4931;44.874;-1.092;2023-07-08T03:02:18;5.68;;;2.35;;
9783;SDS011;4931;44.874;-1.092;2023-07-08T03:04:44;6.50;;;2.53;;
9783;SDS011;4931;44.874;-1.092;2023-07-08T03:07:10;6.35;;;2.28;;
9783;SDS011;4931;44.874;-1.092;2023-07-08T03:09:39;4.10;;;2.20;;
9783;SDS011;4931;44.874;-1.092;2023-07-08T03:12:06;7.30;;;2.47;;
9783;SDS011;4931;44.874;-1.092;2023-07-08T03:14:32;5.05;;;2.40;;
9783;SDS011;4931;44.874;-1.092;2023-07-08T03:16:58;3.28;;;2.25;;
9783;SDS011;4931;44.874;-1.092;2023-07-08T03:19:24;4.30;;;2.00;;
9783;SDS011;4931;44.874;-1.092;2023-07-08T03:21:50;2.92;;;1.88;;
9783;SDS011;4931;44.874;-1.092;2023-07-08T03:24:15;3.67;;;2.20;;
9783;SDS011;4931;44.874;-1.092;2023-07-08T03:26:43;5.22;;;2.25;;
9783;SDS011;4931;44.874;-1.092;2023-07-08T03:29:16;3.53;;;2.20;;
9783;SDS011;4931;44.874;-1.092;2023-07-08T03:31:44;4.88;;;2.30;;
9783;SDS011;4931;44.874;-1.092;2023-07-08T03:34:13;4.40;;;2.33;;
9783;SDS011;4931;44.874;-1.092;2023-07-08T03:36:44;3.58;;;1.98;;
9783;SDS011;4931;44.874;-1.092;2023-07-08T03:39:17;4.00;;;2.15;;
9783;SDS011;4931;44.874;-1.092;2023-07-08T03:41:44;4.43;;;2.45;;
9783;SDS011;4931;44.874;-1.092;2023-07-08T03:44:10;6.38;;;2.38;;
9783;SDS011;4931;44.874;-1.092;2023-07-08T03:46:37;9.20;;;2.30;;
9783;SDS011;4931;44.874;-1.092;2023-07-08T03:49:03;3.85;;;2.30;;
9783;SDS011;4931;44.874;-1.092;2023-07-08T03:51:30;5.63;;;2.53;;
9783;SDS011;4931;44.874;-1.092;2023-07-08T03:53:58;8.18;;;2.53;;
9783;SDS011;4931;44.874;-1.092;2023-07-08T03:56:24;5.80;;;2.17;;
9783;SDS011;4931;44.874;-1.092;2023-07-08T03:58:50;5.93;;;2.45;;
9783;SDS011;4931;44.874;-1.092;2023-07-08T04:01:16;5.50;;;2.42;;
9783;SDS011;4931;44.874;-1.092;2023-07-08T04:03:44;4.43;;;2.75;;
9783;SDS011;4931;44.874;-1.092;2023-07-08T04:06:09;5.13;;;2.70;;
9783;SDS011;4931;44.874;-1.092;2023-07-08T04:08:35;3.85;;;2.40;;
9783;SDS011;4931;44.874;-1.092;2023-07-08T04:11:01;5.07;;;2.72;;
9783;SDS011;4931;44.874;-1.092;2023-07-08T04:13:27;7.07;;;2.40;;
9783;SDS011;4931;44.874;-1.092;2023-07-08T04:15:54;4.72;;;2.30;;
9783;SDS011;4931;44.874;-1.092;2023-07-08T04:18:24;4.70;;;2.40;;
9783;SDS011;4931;44.874;-1.092;2023-07-08T04:20:49;4.03;;;2.30;;
9783;SDS011;4931;44.874;-1.092;2023-07-08T04:23:20;6.20;;;2.63;;
9783;SDS011;4931;44.874;-1.092;2023-07-08T04:25:49;5.90;;;2.88;;
9783;SDS011;4931;44.874;-1.092;2023-07-08T04:28:17;5.32;;;2.35;;
9783;SDS011;4931;44.874;-1.092;2023-07-08T04:30:43;5.32;;;2.38;;
9783;SDS011;4931;44.874;-1.092;2023-07-08T04:33:09;5.97;;;2.42;;
9783;SDS011;4931;44.874;-1.092;2023-07-08T04:35:36;6.20;;;2.50;;
9783;SDS011;4931;44.874;-1.092;2023-07-08T04:38:06;4.05;;;2.17;;
9783;SDS011;4931;44.874;-1.092;2023-07-08T04:40:34;4.25;;;2.50;;
9783;SDS011;4931;44.874;-1.092;2023-07-08T04:43:04;6.20;;;2.53;;
9783;SDS011;4931;44.874;-1.092;2023-07-08T04:45:31;4.45;;;2.75;;
9783;SDS011;4931;44.874;-1.092;2023-07-08T04:47:56;5.47;;;2.63;;
9783;SDS011;4931;44.874;-1.092;2023-07-08T04:50:22;5.30;;;2.30;;
9783;SDS011;4931;44.874;-1.092;2023-07-08T04:52:47;6.03;;;2.67;;
9783;SDS011;4931;44.874;-1.092;2023-07-08T04:55:14;6.07;;;2.75;;
9783;SDS011;4931;44.874;-1.092;2023-07-08T04:57:40;7.90;;;2.78;;
9783;SDS011;4931;44.874;-1.092;2023-07-08T05:00:06;10.57;;;2.42;;
9783;SDS011;4931;44.874;-1.092;2023-07-08T05:02:35;8.02;;;2.42;;
9783;SDS011;4931;44.874;-1.092;2023-07-08T05:05:01;6.88;;;2.72;;
9783;SDS011;4931;44.874;-1.092;2023-07-08T05:07:27;5.93;;;2.25;;
9783;SDS011;4931;44.874;-1.092;2023-07-08T05:09:53;6.03;;;2.30;;
9783;SDS011;4931;44.874;-1.092;2023-07-08T05:12:18;5.47;;;2.33;;
9783;SDS011;4931;44.874;-1.092;2023-07-08T05:14:44;4.05;;;2.45;;
9783;SDS011;4931;44.874;-1.092;2023-07-08T05:17:09;5.30;;;2.53;;
9783;SDS011;4931;44.874;-1.092;2023-07-08T05:19:35;6.55;;;2.67;;
9783;SDS011;4931;44.874;-1.092;2023-07-08T05:22:00;5.32;;;2.40;;
9783;SDS011;4931;44.874;-1.092;2023-07-08T05:24:26;5.25;;;2.50;;
9783;SDS011;4931;44.874;-1.092;2023-07-08T05:26:52;6.32;;;2.50;;
9783;SDS011;4931;44.874;-1.092;2023-07-08T05:29:17;5.85;;;2.80;;
9783;SDS011;4931;44.874;-1.092;2023-07-08T05:31:43;5.50;;;2.60;;
9783;SDS011;4931;44.874;-1.092;2023-07-08T05:34:08;5.97;;;2.40;;
9783;SDS011;4931;44.874;-1.092;2023-07-08T05:36:34;7.07;;;2.90;;
9783;SDS011;4931;44.874;-1.092;2023-07-08T05:38:59;5.88;;;2.70;;
9783;SDS011;4931;44.874;-1.092;2023-07-08T05:41:25;5.00;;;2.47;;
9783;SDS011;4931;44.874;-1.092;2023-07-08T05:43:50;6.65;;;3.22;;
9783;SDS011;4931;44.874;-1.092;2023-07-08T05:46:16;4.18;;;2.42;;
9783;SDS011;4931;44.874;-1.092;2023-07-08T05:48:41;6.18;;;2.70;;
9783;SDS011;4931;44.874;-1.092;2023-07-08T05:51:07;5.15;;;2.42;;
9783;SDS011;4931;44.874;-1.092;2023-07-08T05:53:32;6.53;;;3.08;;
9783;SDS011;4931;44.874;-1.092;2023-07-08T05:55:58;5.57;;;2.63;;
9783;SDS011;4931;44.874;-1.092;2023-07-08T05:58:23;5.20;;;2.60;;
9783;SDS011;4931;44.874;-1.092;2023-07-08T06:00:54;6.25;;;2.50;;
9783;SDS011;4931;44.874;-1.092;2023-07-08T06:03:21;5.60;;;2.53;;
9783;SDS011;4931;44.874;-1.092;2023-07-08T06:05:47;8.68;;;2.85;;
9783;SDS011;4931;44.874;-1.092;2023-07-08T06:08:14;4.78;;;2.30;;
9783;SDS011;4931;44.874;-1.092;2023-07-08T06:10:46;4.25;;;2.42;;
9783;SDS011;4931;44.874;-1.092;2023-07-08T06:13:12;3.55;;;2.30;;
9783;SDS011;4931;44.874;-1.092;2023-07-08T06:15:38;5.55;;;2.70;;
9783;SDS011;4931;44.874;-1.092;2023-07-08T06:18:04;7.68;;;2.67;;
9783;SDS011;4931;44.874;-1.092;2023-07-08T06:20:29;5.50;;;2.97;;
9783;SDS011;4931;44.874;-1.092;2023-07-08T06:22:55;8.25;;;2.80;;
9783;SDS011;4931;44.874;-1.092;2023-07-08T06:25:20;7.25;;;3.03;;
9783;SDS011;4931;44.874;-1.092;2023-07-08T06:27:46;5.70;;;2.47;;
9783;SDS011;4931;44.874;-1.092;2023-07-08T06:30:12;6.63;;;2.67;;
9783;SDS011;4931;44.874;-1.092;2023-07-08T06:32:38;6.88;;;2.50;;
9783;SDS011;4931;44.874;-1.092;2023-07-08T06:35:03;7.47;;;2.30;;
9783;SDS011;4931;44.874;-1.092;2023-07-08T06:37:29;6.38;;;2.55;;
9783;SDS011;4931;44.874;-1.092;2023-07-08T06:39:55;10.02;;;3.17;;
9783;SDS011;4931;44.874;-1.092;2023-07-08T06:42:20;8.55;;;2.88;;
9783;SDS011;4931;44.874;-1.092;2023-07-08T06:44:46;6.35;;;2.83;;
9783;SDS011;4931;44.874;-1.092;2023-07-08T06:47:16;7.07;;;2.72;;
9783;SDS011;4931;44.874;-1.092;2023-07-08T06:49:43;5.00;;;2.70;;
9783;SDS011;4931;44.874;-1.092;2023-07-08T06:52:08;7.85;;;2.80;;
9783;SDS011;4931;44.874;-1.092;2023-07-08T06:54:34;5.00;;;2.90;;
9783;SDS011;4931;44.874;-1.092;2023-07-08T06:56:59;6.82;;;2.95;;
9783;SDS011;4931;44.874;-1.092;2023-07-08T06:59:25;9.00;;;2.97;;
9783;SDS011;4931;44.874;-1.092;2023-07-08T07:01:50;7.45;;;2.83;;
9783;SDS011;4931;44.874;-1.092;2023-07-08T07:04:16;5.47;;;3.20;;
9783;SDS011;4931;44.874;-1.092;2023-07-08T07:06:41;6.95;;;2.88;;
9783;SDS011;4931;44.874;-1.092;2023-07-08T07:09:07;7.28;;;2.95;;
9783;SDS011;4931;44.874;-1.092;2023-07-08T07:11:32;7.82;;;3.00;;
9783;SDS011;4931;44.874;-1.092;2023-07-08T07:13:58;5.47;;;3.15;;
9783;SDS011;4931;44.874;-1.092;2023-07-08T07:16:23;8.85;;;3.10;;
9783;SDS011;4931;44.874;-1.092;2023-07-08T07:18:49;6.47;;;2.78;;
9783;SDS011;4931;44.874;-1.092;2023-07-08T07:21:16;7.22;;;3.13;;
9783;SDS011;4931;44.874;-1.092;2023-07-08T07:23:42;9.02;;;3.13;;
9783;SDS011;4931;44.874;-1.092;2023-07-08T07:26:08;8.23;;;3.30;;
9783;SDS011;4931;44.874;-1.092;2023-07-08T07:28:33;6.93;;;3.50;;
9783;SDS011;4931;44.874;-1.092;2023-07-08T07:30:59;9.18;;;3.20;;
9783;SDS011;4931;44.874;-1.092;2023-07-08T07:33:25;6.35;;;3.38;;
9783;SDS011;4931;44.874;-1.092;2023-07-08T07:35:51;7.15;;;3.47;;
9783;SDS011;4931;44.874;-1.092;2023-07-08T07:38:17;7.30;;;3.88;;
9783;SDS011;4931;44.874;-1.092;2023-07-08T07:40:43;6.07;;;3.65;;
9783;SDS011;4931;44.874;-1.092;2023-07-08T07:43:09;7.13;;;3.80;;
9783;SDS011;4931;44.874;-1.092;2023-07-08T07:45:34;7.05;;;3.50;;
9783;SDS011;4931;44.874;-1.092;2023-07-08T07:48:00;7.07;;;3.67;;
9783;SDS011;4931;44.874;-1.092;2023-07-08T07:50:26;9.57;;;4.05;;
9783;SDS011;4931;44.874;-1.092;2023-07-08T07:52:51;9.60;;;4.03;;
9783;SDS011;4931;44.874;-1.092;2023-07-08T07:55:16;9.23;;;4.10;;
9783;SDS011;4931;44.874;-1.092;2023-07-08T07:57:44;9.05;;;4.22;;
9783;SDS011;4931;44.874;-1.092;2023-07-08T08:00:12;10.43;;;4.38;;
9783;SDS011;4931;44.874;-1.092;2023-07-08T08:02:39;10.15;;;4.47;;
9783;SDS011;4931;44.874;-1.092;2023-07-08T08:05:05;8.05;;;4.53;;
9783;SDS011;4931;44.874;-1.092;2023-07-08T08:07:31;11.25;;;4.80;;
9783;SDS011;4931;44.874;-1.092;2023-07-08T08:09:56;10.00;;;4.45;;
9783;SDS011;4931;44.874;-1.092;2023-07-08T08:12:22;12.10;;;5.18;;
9783;SDS011;4931;44.874;-1.092;2023-07-08T08:14:50;9.70;;;4.28;;
9783;SDS011;4931;44.874;-1.092;2023-07-08T08:17:16;12.32;;;5.00;;
9783;SDS011;4931;44.874;-1.092;2023-07-08T08:19:41;9.00;;;4.97;;
9783;SDS011;4931;44.874;-1.092;2023-07-08T08:22:07;6.50;;;4.40;;
9783;SDS011;4931;44.874;-1.092;2023-07-08T08:24:33;8.65;;;4.85;;
9783;SDS011;4931;44.874;-1.092;2023-07-08T08:26:59;10.32;;;4.85;;
9783;SDS011;4931;44.874;-1.092;2023-07-08T08:29:24;7.00;;;4.70;;
9783;SDS011;4931;44.874;-1.092;2023-07-08T08:31:50;10.77;;;4.90;;
9783;SDS011;4931;44.874;-1.092;2023-07-08T08:34:15;10.48;;;5.30;;
9783;SDS011;4931;44.874;-1.092;2023-07-08T08:36:41;10.52;;;4.53;;
9783;SDS011;4931;44.874;-1.092;2023-07-08T08:39:08;11.05;;;6.00;;
9783;SDS011;4931;44.874;-1.092;2023-07-08T08:41:34;8.90;;;5.22;;
9783;SDS011;4931;44.874;-1.092;2023-07-08T08:44:05;11.30;;;4.70;;
9783;SDS011;4931;44.874;-1.092;2023-07-08T08:46:39;11.73;;;7.07;;
9783;SDS011;4931;44.874;-1.092;2023-07-08T08:51:45;10.48;;;5.32;;
9783;SDS011;4931;44.874;-1.092;2023-07-08T08:54:12;6.82;;;5.00;;
9783;SDS011;4931;44.874;-1.092;2023-07-08T09:02:08;10.38;;;5.32;;
9783;SDS011;4931;44.874;-1.092;2023-07-08T09:05:03;8.82;;;5.10;;
9783;SDS011;4931;44.874;-1.092;2023-07-08T09:07:43;9.95;;;5.47;;
9783;SDS011;4931;44.874;-1.092;2023-07-08T09:13:05;10.90;;;5.70;;
9783;SDS011;4931;44.874;-1.092;2023-07-08T09:15:32;8.88;;;5.90;;
9783;SDS011;4931;44.874;-1.092;2023-07-08T09:17:59;9.13;;;5.32;;
9783;SDS011;4931;44.874;-1.092;2023-07-08T09:20:37;11.25;;;6.00;;
9783;SDS011;4931;44.874;-1.092;2023-07-08T09:23:03;10.23;;;5.70;;
9783;SDS011;4931;44.874;-1.092;2023-07-08T09:25:54;12.75;;;5.85;;
9783;SDS011;4931;44.874;-1.092;2023-07-08T09:28:38;14.35;;;6.47;;
9783;SDS011;4931;44.874;-1.092;2023-07-08T09:31:09;10.68;;;6.40;;
9783;SDS011;4931;44.874;-1.092;2023-07-08T09:33:52;11.60;;;5.80;;
9783;SDS011;4931;44.874;-1.092;2023-07-08T09:36:21;12.10;;;6.80;;
9783;SDS011;4931;44.874;-1.092;2023-07-08T09:38:50;11.15;;;7.25;;
9783;SDS011;4931;44.874;-1.092;2023-07-08T09:41:29;11.75;;;7.35;;
9783;SDS011;4931;44.874;-1.092;2023-07-08T09:44:04;15.45;;;8.98;;
9783;SDS011;4931;44.874;-1.092;2023-07-08T09:49:04;12.98;;;7.80;;
9783;SDS011;4931;44.874;-1.092;2023-07-08T09:51:39;14.52;;;8.75;;
9783;SDS011;4931;44.874;-1.092;2023-07-08T09:54:05;14.40;;;8.55;;
9783;SDS011;4931;44.874;-1.092;2023-07-08T09:56:30;14.73;;;8.95;;
9783;SDS011;4931;44.874;-1.092;2023-07-08T09:58:55;12.13;;;8.20;;
9783;SDS011;4931;44.874;-1.092;2023-07-08T10:01:23;13.50;;;8.25;;
9783;SDS011;4931;44.874;-1.092;2023-07-08T10:03:51;13.90;;;8.63;;
9783;SDS011;4931;44.874;-1.092;2023-07-08T10:06:23;15.65;;;8.43;;
9783;SDS011;4931;44.874;-1.092;2023-07-08T10:08:53;14.73;;;8.27;;
9783;SDS011;4931;44.874;-1.092;2023-07-08T10:11:24;10.48;;;8.05;;
9783;SDS011;4931;44.874;-1.092;2023-07-08T10:13:52;14.45;;;8.60;;
9783;SDS011;4931;44.874;-1.092;2023-07-08T10:16:30;15.02;;;8.30;;
9783;SDS011;4931;44.874;-1.092;2023-07-08T10:18:58;15.48;;;8.90;;
9783;SDS011;4931;44.874;-1.092;2023-07-08T10:21:34;14.65;;;9.23;;
9783;SDS011;4931;44.874;-1.092;2023-07-08T10:27:07;14.05;;;8.73;;
9783;SDS011;4931;44.874;-1.092;2023-07-08T10:32:41;21.10;;;8.52;;
9783;SDS011;4931;44.874;-1.092;2023-07-08T10:35:14;15.35;;;8.00;;
9783;SDS011;4931;44.874;-1.092;2023-07-08T10:41:01;15.93;;;8.73;;
9783;SDS011;4931;44.874;-1.092;2023-07-08T10:43:58;14.45;;;8.80;;
9783;SDS011;4931;44.874;-1.092;2023-07-08T10:52:02;15.93;;;9.15;;
9783;SDS011;4931;44.874;-1.092;2023-07-08T11:00:40;14.13;;;8.90;;
9783;SDS011;4931;44.874;-1.092;2023-07-08T11:03:19;13.98;;;8.18;;
9783;SDS011;4931;44.874;-1.092;2023-07-08T11:05:46;15.35;;;7.50;;
9783;SDS011;4931;44.874;-1.092;2023-07-08T11:08:24;11.73;;;7.13;;
9783;SDS011;4931;44.874;-1.092;2023-07-08T11:10:55;11.80;;;6.47;;
9783;SDS011;4931;44.874;-1.092;2023-07-08T11:13:25;12.98;;;7.13;;
9783;SDS011;4931;44.874;-1.092;2023-07-08T11:15:56;11.97;;;6.07;;
9783;SDS011;4931;44.874;-1.092;2023-07-08T11:21:24;9.57;;;5.32;;
9783;SDS011;4931;44.874;-1.092;2023-07-08T11:24:21;12.57;;;4.82;;
9783;SDS011;4931;44.874;-1.092;2023-07-08T11:26:48;10.10;;;5.63;;
9783;SDS011;4931;44.874;-1.092;2023-07-08T11:29:37;16.33;;;8.20;;
9783;SDS011;4931;44.874;-1.092;2023-07-08T11:32:11;11.00;;;5.20;;
9783;SDS011;4931;44.874;-1.092;2023-07-08T11:34:39;7.60;;;4.93;;
9783;SDS011;4931;44.874;-1.092;2023-07-08T11:37:07;11.82;;;5.20;;
9783;SDS011;4931;44.874;-1.092;2023-07-08T11:44:35;8.77;;;5.32;;
9783;SDS011;4931;44.874;-1.092;2023-07-08T11:50:01;10.25;;;5.97;;
9783;SDS011;4931;44.874;-1.092;2023-07-08T11:52:27;9.82;;;5.53;;
9783;SDS011;4931;44.874;-1.092;2023-07-08T11:54:56;11.07;;;4.90;;
9783;SDS011;4931;44.874;-1.092;2023-07-08T11:57:36;8.38;;;4.78;;
9783;SDS011;4931;44.874;-1.092;2023-07-08T12:00:14;9.73;;;4.85;;
9783;SDS011;4931;44.874;-1.092;2023-07-08T12:02:51;10.25;;;5.47;;
9783;SDS011;4931;44.874;-1.092;2023-07-08T12:05:28;9.52;;;5.20;;
9783;SDS011;4931;44.874;-1.092;2023-07-08T12:08:01;9.02;;;5.55;;
9783;SDS011;4931;44.874;-1.092;2023-07-08T12:13:00;10.55;;;5.32;;
9783;SDS011;4931;44.874;-1.092;2023-07-08T12:15:26;9.20;;;5.40;;
9783;SDS011;4931;44.874;-1.092;2023-07-08T12:17:55;9.10;;;5.65;;
9783;SDS011;4931;44.874;-1.092;2023-07-08T12:20:27;10.48;;;6.28;;
9783;SDS011;4931;44.874;-1.092;2023-07-08T12:23:00;11.65;;;5.50;;
9783;SDS011;4931;44.874;-1.092;2023-07-08T12:25:32;8.85;;;5.32;;
9783;SDS011;4931;44.874;-1.092;2023-07-08T12:28:01;10.93;;;5.70;;
9783;SDS011;4931;44.874;-1.092;2023-07-08T12:30:28;10.07;;;6.10;;
9783;SDS011;4931;44.874;-1.092;2023-07-08T12:32:55;8.35;;;5.40;;
9783;SDS011;4931;44.874;-1.092;2023-07-08T12:35:25;8.15;;;5.55;;
9783;SDS011;4931;44.874;-1.092;2023-07-08T12:38:01;11.88;;;6.25;;
9783;SDS011;4931;44.874;-1.092;2023-07-08T12:40:30;10.07;;;6.35;;
9783;SDS011;4931;44.874;-1.092;2023-07-08T12:42:57;9.30;;;5.63;;
9783;SDS011;4931;44.874;-1.092;2023-07-08T12:45:26;13.25;;;5.80;;
9783;SDS011;4931;44.874;-1.092;2023-07-08T12:47:52;11.40;;;5.35;;
9783;SDS011;4931;44.874;-1.092;2023-07-08T12:50:18;8.68;;;5.60;;
9783;SDS011;4931;44.874;-1.092;2023-07-08T12:52:45;9.30;;;5.50;;
9783;SDS011;4931;44.874;-1.092;2023-07-08T12:55:12;9.23;;;5.30;;
9783;SDS011;4931;44.874;-1.092;2023-07-08T12:57:42;7.68;;;5.82;;
9783;SDS011;4931;44.874;-1.092;2023-07-08T13:00:24;8.38;;;5.38;;
9783;SDS011;4931;44.874;-1.092;2023-07-08T13:02:55;11.82;;;6.03;;
9783;SDS011;4931;44.874;-1.092;2023-07-08T13:05:23;11.30;;;6.38;;
9783;SDS011;4931;44.874;-1.092;2023-07-08T13:07:51;9.35;;;6.00;;
9783;SDS011;4931;44.874;-1.092;2023-07-08T13:10:21;9.20;;;5.80;;
9783;SDS011;4931;44.874;-1.092;2023-07-08T13:12:52;9.63;;;6.00;;
9783;SDS011;4931;44.874;-1.092;2023-07-08T13:15:24;9.85;;;6.22;;
9783;SDS011;4931;44.874;-1.092;2023-07-08T13:17:54;10.55;;;6.30;;
9783;SDS011;4931;44.874;-1.092;2023-07-08T13:20:21;10.20;;;6.30;;
9783;SDS011;4931;44.874;-1.092;2023-07-08T13:22:51;9.05;;;6.45;;
9783;SDS011;4931;44.874;-1.092;2023-07-08T13:25:19;10.25;;;6.68;;
9783;SDS011;4931;44.874;-1.092;2023-07-08T13:30:23;10.68;;;7.35;;
9783;SDS011;4931;44.874;-1.092;2023-07-08T13:32:53;9.52;;;6.50;;
9783;SDS011;4931;44.874;-1.092;2023-07-08T13:35:25;12.65;;;7.22;;
9783;SDS011;4931;44.874;-1.092;2023-07-08T13:38:01;12.10;;;7.13;;
9783;SDS011;4931;44.874;-1.092;2023-07-08T13:40:28;8.63;;;7.20;;
9783;SDS011;4931;44.874;-1.092;2023-07-08T13:42:55;12.68;;;7.03;;
9783;SDS011;4931;44.874;-1.092;2023-07-08T13:45:25;10.20;;;6.65;;
9783;SDS011;4931;44.874;-1.092;2023-07-08T13:47:59;13.32;;;7.35;;
9783;SDS011;4931;44.874;-1.092;2023-07-08T13:50:35;9.25;;;6.70;;
9783;SDS011;4931;44.874;-1.092;2023-07-08T13:53:16;8.85;;;7.25;;
9783;SDS011;4931;44.874;-1.092;2023-07-08T13:55:42;11.73;;;6.75;;
9783;SDS011;4931;44.874;-1.092;2023-07-08T13:58:13;10.77;;;6.53;;
9783;SDS011;4931;44.874;-1.092;2023-07-08T14:00:40;9.48;;;5.50;;
9783;SDS011;4931;44.874;-1.092;2023-07-08T14:03:10;7.80;;;4.85;;
9783;SDS011;4931;44.874;-1.092;2023-07-08T14:05:38;6.00;;;4.47;;
9783;SDS011;4931;44.874;-1.092;2023-07-08T14:08:10;6.65;;;4.72;;
9783;SDS011;4931;44.874;-1.092;2023-07-08T14:10:38;8.40;;;4.70;;
9783;SDS011;4931;44.874;-1.092;2023-07-08T14:13:04;5.38;;;4.13;;
9783;SDS011;4931;44.874;-1.092;2023-07-08T14:15:29;5.43;;;3.95;;
9783;SDS011;4931;44.874;-1.092;2023-07-08T14:17:55;8.20;;;4.20;;
9783;SDS011;4931;44.874;-1.092;2023-07-08T14:20:21;5.47;;;4.03;;
9783;SDS011;4931;44.874;-1.092;2023-07-08T14:22:48;6.97;;;4.07;;
9783;SDS011;4931;44.874;-1.092;2023-07-08T14:25:16;6.72;;;3.90;;
9783;SDS011;4931;44.874;-1.092;2023-07-08T14:27:43;6.43;;;4.15;;
9783;SDS011;4931;44.874;-1.092;2023-07-08T14:30:09;6.95;;;4.10;;
9783;SDS011;4931;44.874;-1.092;2023-07-08T14:32:35;6.72;;;4.63;;
9783;SDS011;4931;44.874;-1.092;2023-07-08T14:35:23;8.48;;;4.40;;
9783;SDS011;4931;44.874;-1.092;2023-07-08T14:37:51;6.50;;;4.35;;
9783;SDS011;4931;44.874;-1.092;2023-07-08T14:40:26;5.88;;;3.83;;
9783;SDS011;4931;44.874;-1.092;2023-07-08T14:43:03;8.57;;;3.95;;
9783;SDS011;4931;44.874;-1.092;2023-07-08T14:45:31;9.80;;;4.65;;
9783;SDS011;4931;44.874;-1.092;2023-07-08T14:48:07;6.95;;;4.63;;
9783;SDS011;4931;44.874;-1.092;2023-07-08T14:52:59;5.40;;;4.70;;
9783;SDS011;4931;44.874;-1.092;2023-07-08T14:55:24;6.03;;;4.45;;
9783;SDS011;4931;44.874;-1.092;2023-07-08T14:57:50;7.10;;;4.50;;
9783;SDS011;4931;44.874;-1.092;2023-07-08T15:00:17;6.90;;;4.35;;
9783;SDS011;4931;44.874;-1.092;2023-07-08T15:02:44;6.80;;;4.25;;
9783;SDS011;4931;44.874;-1.092;2023-07-08T15:05:13;6.15;;;4.38;;
9783;SDS011;4931;44.874;-1.092;2023-07-08T15:07:40;8.23;;;4.15;;
9783;SDS011;4931;44.874;-1.092;2023-07-08T15:10:06;7.82;;;4.10;;
9783;SDS011;4931;44.874;-1.092;2023-07-08T15:12:32;5.28;;;4.10;;
9783;SDS011;4931;44.874;-1.092;2023-07-08T15:14:58;5.78;;;4.30;;
9783;SDS011;4931;44.874;-1.092;2023-07-08T15:17:23;5.13;;;3.95;;
9783;SDS011;4931;44.874;-1.092;2023-07-08T15:19:49;5.30;;;4.00;;
9783;SDS011;4931;44.874;-1.092;2023-07-08T15:22:14;9.77;;;3.70;;
9783;SDS011;4931;44.874;-1.092;2023-07-08T15:24:40;6.60;;;3.90;;
9783;SDS011;4931;44.874;-1.092;2023-07-08T15:27:05;8.73;;;4.63;;
9783;SDS011;4931;44.874;-1.092;2023-07-08T15:29:34;4.47;;;3.80;;
9783;SDS011;4931;44.874;-1.092;2023-07-08T15:31:59;6.07;;;3.75;;
9783;SDS011;4931;44.874;-1.092;2023-07-08T15:34:25;8.13;;;4.05;;
9783;SDS011;4931;44.874;-1.092;2023-07-08T15:36:50;6.50;;;4.05;;
9783;SDS011;4931;44.874;-1.092;2023-07-08T15:39:16;7.00;;;4.70;;
9783;SDS011;4931;44.874;-1.092;2023-07-08T15:41:42;5.65;;;4.22;;
9783;SDS011;4931;44.874;-1.092;2023-07-08T15:44:09;6.30;;;3.67;;
9783;SDS011;4931;44.874;-1.092;2023-07-08T15:46:45;5.80;;;3.73;;
9783;SDS011;4931;44.874;-1.092;2023-07-08T15:49:14;6.10;;;4.00;;
9783;SDS011;4931;44.874;-1.092;2023-07-08T15:51:42;4.43;;;3.55;;
9783;SDS011;4931;44.874;-1.092;2023-07-08T15:54:08;5.82;;;3.28;;
9783;SDS011;4931;44.874;-1.092;2023-07-08T15:56:34;7.28;;;3.40;;
9783;SDS011;4931;44.874;-1.092;2023-07-08T15:59:00;5.82;;;3.20;;
9783;SDS011;4931;44.874;-1.092;2023-07-08T16:01:26;4.88;;;2.72;;
9783;SDS011;4931;44.874;-1.092;2023-07-08T16:03:52;5.97;;;3.03;;
9783;SDS011;4931;44.874;-1.092;2023-07-08T16:06:18;5.15;;;3.20;;
9783;SDS011;4931;44.874;-1.092;2023-07-08T16:08:44;4.85;;;2.80;;